createdAt,value
2019-02-16T00:00:07.802Z,7.70
2019-02-16T00:01:08.008Z,8.10
2019-02-16T00:02:05.198Z,8.00
2019-02-16T00:03:06.681Z,7.50
2019-02-16T00:04:09.418Z,7.60
2019-02-16T00:05:05.311Z,8.80
2019-02-16T00:06:05.479Z,8.90
2019-02-16T00:07:05.674Z,8.90
2019-02-16T00:08:05.811Z,6.80
2019-02-16T00:09:05.974Z,7.50
2019-02-16T00:10:06.140Z,8.40
2019-02-16T00:11:06.299Z,7.00
2019-02-16T00:12:06.498Z,8.00
2019-02-16T00:13:06.639Z,7.40
2019-02-16T00:14:06.802Z,8.80
2019-02-16T00:15:07.288Z,9.30
2019-02-16T00:16:07.102Z,8.00
2019-02-16T00:17:07.551Z,8.00
2019-02-16T00:18:07.391Z,7.50
2019-02-16T00:19:10.401Z,7.10
2019-02-16T00:20:15.612Z,7.70
2019-02-16T00:21:16.220Z,8.70
2019-02-16T00:22:15.867Z,7.60
2019-02-16T00:23:08.291Z,9.40
2019-02-16T00:24:08.574Z,8.10
2019-02-16T00:25:08.424Z,8.40
2019-02-16T00:26:08.634Z,9.30
2019-02-16T00:27:08.716Z,8.60
2019-02-16T00:28:09.063Z,9.20
2019-02-16T00:29:09.030Z,6.70
2019-02-16T00:30:09.215Z,8.00
2019-02-16T00:31:09.554Z,8.70
2019-02-16T00:32:09.556Z,8.60
2019-02-16T00:33:09.662Z,8.10
2019-02-16T00:34:09.728Z,7.30
2019-02-16T00:35:09.921Z,9.70
2019-02-16T00:36:10.098Z,7.40
2019-02-16T00:37:10.321Z,8.30
2019-02-16T00:38:10.551Z,8.30
2019-02-16T00:39:10.621Z,7.20
2019-02-16T00:40:10.901Z,7.30
2019-02-16T00:41:10.996Z,8.70
2019-02-16T00:42:11.066Z,7.10
2019-02-16T00:43:11.171Z,8.40
2019-02-16T00:44:11.287Z,7.20
2019-02-16T00:45:11.518Z,6.70
2019-02-16T00:46:11.578Z,7.90
2019-02-16T00:47:11.781Z,7.80
2019-02-16T00:48:11.975Z,6.50
2019-02-16T00:49:12.267Z,7.80
2019-02-16T00:50:12.382Z,7.10
2019-02-16T00:51:13.922Z,7.50
2019-02-16T00:52:12.800Z,7.90
2019-02-16T00:53:12.942Z,9.10
2019-02-16T00:54:13.066Z,6.90
2019-02-16T00:55:13.153Z,8.10
2019-02-16T00:56:13.386Z,7.30
2019-02-16T00:57:13.461Z,8.70
2019-02-16T00:58:13.701Z,7.40
2019-02-16T00:59:13.947Z,8.10
2019-02-16T01:00:13.920Z,7.20
2019-02-16T01:01:14.047Z,8.80
2019-02-16T01:02:14.159Z,8.00
2019-02-16T01:03:14.313Z,7.80
2019-02-16T01:04:14.578Z,8.30
2019-02-16T01:05:14.635Z,7.20
2019-02-16T01:06:14.899Z,7.20
2019-02-16T01:07:14.970Z,8.00
2019-02-16T01:08:15.192Z,5.80
2019-02-16T01:09:15.297Z,7.50
2019-02-16T01:10:15.450Z,7.30
2019-02-16T01:11:15.733Z,7.10
2019-02-16T01:12:15.739Z,7.20
2019-02-16T01:13:15.848Z,6.00
2019-02-16T01:14:15.918Z,7.30
2019-02-16T01:15:16.170Z,7.10
2019-02-16T01:16:16.378Z,6.80
2019-02-16T01:17:16.436Z,7.00
2019-02-16T01:18:16.624Z,6.20
2019-02-16T01:19:16.823Z,6.50
2019-02-16T01:20:17.027Z,6.20
2019-02-16T01:21:22.731Z,6.70
2019-02-16T01:22:17.397Z,7.50
2019-02-16T01:23:17.562Z,6.80
2019-02-16T01:24:17.665Z,6.70
2019-02-16T01:25:17.796Z,6.10
2019-02-16T01:26:17.889Z,7.00
2019-02-16T01:27:18.173Z,8.70
2019-02-16T01:28:18.246Z,6.90
2019-02-16T01:29:22.267Z,7.60
2019-02-16T01:30:19.707Z,7.80
2019-02-16T01:31:18.803Z,7.50
2019-02-16T01:32:19.142Z,7.40
2019-02-16T01:33:19.250Z,6.20
2019-02-16T01:34:19.380Z,6.40
2019-02-16T01:35:19.484Z,6.10
2019-02-16T01:36:19.568Z,6.50
2019-02-16T01:37:19.780Z,7.30
2019-02-16T01:38:20.017Z,6.60
2019-02-16T01:39:21.581Z,6.00
2019-02-16T01:40:20.287Z,7.30
2019-02-16T01:41:20.350Z,7.00
2019-02-16T01:42:20.580Z,7.10
2019-02-16T01:43:20.782Z,6.80
2019-02-16T01:44:21.062Z,7.10
2019-02-16T01:45:21.206Z,8.70
2019-02-16T01:46:21.261Z,9.00
2019-02-16T01:47:21.494Z,8.90
2019-02-16T01:48:21.690Z,7.60
2019-02-16T01:49:21.903Z,7.80
2019-02-16T01:50:22.157Z,7.30
2019-02-16T01:51:31.274Z,8.50
2019-02-16T01:52:22.456Z,8.50
2019-02-16T01:53:22.555Z,9.10
2019-02-16T01:54:22.617Z,9.00
2019-02-16T01:55:22.830Z,9.50
2019-02-16T01:56:23.038Z,7.80
2019-02-16T01:57:23.229Z,8.30
2019-02-16T01:58:23.502Z,7.90
2019-02-16T01:59:23.595Z,8.80
2019-02-16T02:00:23.689Z,7.80
2019-02-16T02:01:23.873Z,9.10
2019-02-16T02:02:24.077Z,9.20
2019-02-16T02:03:24.268Z,8.60
2019-02-16T02:04:24.487Z,8.40
2019-02-16T02:05:24.674Z,10.60
2019-02-16T02:06:24.749Z,8.70
2019-02-16T02:07:24.859Z,8.30
2019-02-16T02:08:25.043Z,8.50
2019-02-16T02:09:25.285Z,8.80
2019-02-16T02:10:25.498Z,9.30
2019-02-16T02:11:25.459Z,7.50
2019-02-16T02:12:25.583Z,8.60
2019-02-16T02:13:25.657Z,9.90
2019-02-16T02:14:25.849Z,7.30
2019-02-16T02:15:26.068Z,9.20
2019-02-16T02:16:26.129Z,7.50
2019-02-16T02:17:26.315Z,8.60
2019-02-16T02:18:26.546Z,8.40
2019-02-16T02:19:26.608Z,9.10
2019-02-16T02:20:26.806Z,7.00
2019-02-16T02:21:27.075Z,9.00
2019-02-16T02:22:27.145Z,8.30
2019-02-16T02:23:27.333Z,8.40
2019-02-16T02:24:27.532Z,8.90
2019-02-16T02:25:27.710Z,9.40
2019-02-16T02:26:27.954Z,7.40
2019-02-16T02:27:28.100Z,8.00
2019-02-16T02:28:28.173Z,9.10
2019-02-16T02:29:28.384Z,8.80
2019-02-16T02:30:28.602Z,10.00
2019-02-16T02:31:28.683Z,8.70
2019-02-16T02:32:28.918Z,9.00
2019-02-16T02:33:29.036Z,9.00
2019-02-16T02:34:29.099Z,8.30
2019-02-16T02:35:29.315Z,9.70
2019-02-16T02:36:29.405Z,9.00
2019-02-16T02:37:29.585Z,7.70
2019-02-16T02:38:29.813Z,9.40
2019-02-16T02:39:30.002Z,7.80
2019-02-16T02:40:30.221Z,8.20
2019-02-16T02:41:30.371Z,9.00
2019-02-16T02:42:30.586Z,9.50
2019-02-16T02:43:30.788Z,9.30
2019-02-16T02:44:30.989Z,8.80
2019-02-16T02:45:31.215Z,10.70
2019-02-16T02:46:31.401Z,8.50
2019-02-16T02:47:31.639Z,8.80
2019-02-16T02:48:31.715Z,8.50
2019-02-16T02:49:31.903Z,9.10
2019-02-16T02:50:32.118Z,9.10
2019-02-16T02:51:32.333Z,9.20
2019-02-16T02:52:32.569Z,8.40
2019-02-16T02:53:32.635Z,9.60
2019-02-16T02:54:32.889Z,9.40
2019-02-16T02:55:33.042Z,8.90
2019-02-16T02:56:33.258Z,9.50
2019-02-16T02:57:33.439Z,8.10
2019-02-16T02:58:33.640Z,8.10
2019-02-16T02:59:33.822Z,10.40
2019-02-16T03:00:34.053Z,9.40
2019-02-16T03:01:34.121Z,10.50
2019-02-16T03:02:34.467Z,10.20
2019-02-16T03:03:34.407Z,9.70
2019-02-16T03:04:34.603Z,10.10
2019-02-16T03:05:34.791Z,9.50
2019-02-16T03:06:34.993Z,9.50
2019-02-16T03:07:35.192Z,10.50
2019-02-16T03:08:35.381Z,11.60
2019-02-16T03:09:35.639Z,10.80
2019-02-16T03:10:35.754Z,10.90
2019-02-16T03:11:35.890Z,9.90
2019-02-16T03:12:36.123Z,12.10
2019-02-16T03:13:36.315Z,11.00
2019-02-16T03:14:36.327Z,10.90
2019-02-16T03:15:36.468Z,9.20
2019-02-16T03:16:40.817Z,8.50
2019-02-16T03:17:36.680Z,8.60
2019-02-16T03:18:38.813Z,10.10
2019-02-16T03:19:36.969Z,10.00
2019-02-16T03:20:37.088Z,9.90
2019-02-16T03:21:37.150Z,8.50
2019-02-16T03:22:37.429Z,10.10
2019-02-16T03:23:37.583Z,8.70
2019-02-16T03:24:37.692Z,9.30
2019-02-16T03:25:37.909Z,10.80
2019-02-16T03:26:37.994Z,10.40
2019-02-16T03:27:38.235Z,8.30
2019-02-16T03:28:38.299Z,8.20
2019-02-16T03:29:38.501Z,9.10
2019-02-16T03:30:38.819Z,9.90
2019-02-16T03:31:38.920Z,8.20
2019-02-16T03:32:39.059Z,9.60
2019-02-16T03:33:39.141Z,9.00
2019-02-16T03:34:39.336Z,9.20
2019-02-16T03:35:39.570Z,8.00
2019-02-16T03:36:39.655Z,7.70
2019-02-16T03:37:39.857Z,7.20
2019-02-16T03:38:40.050Z,6.90
2019-02-16T03:39:40.264Z,8.90
2019-02-16T03:40:40.536Z,8.00
2019-02-16T03:41:40.626Z,7.50
2019-02-16T03:42:40.838Z,8.20
2019-02-16T03:43:40.928Z,8.30
2019-02-16T03:44:41.158Z,8.50
2019-02-16T03:45:41.229Z,9.50
2019-02-16T03:46:41.504Z,7.10
2019-02-16T03:47:41.612Z,7.90
2019-02-16T03:48:41.698Z,8.30
2019-02-16T03:49:41.870Z,8.00
2019-02-16T03:50:42.143Z,8.70
2019-02-16T03:51:42.202Z,8.30
2019-02-16T03:52:42.415Z,8.30
2019-02-16T03:53:42.627Z,9.50
2019-02-16T03:54:42.760Z,8.90
2019-02-16T03:55:42.874Z,8.80
2019-02-16T03:56:42.959Z,9.20
2019-02-16T03:57:43.154Z,9.20
2019-02-16T03:58:43.371Z,9.70
2019-02-16T03:59:43.578Z,9.70
2019-02-16T04:00:43.819Z,9.30
2019-02-16T04:01:43.894Z,7.30
2019-02-16T04:02:44.731Z,8.90
2019-02-16T04:03:44.309Z,7.60
2019-02-16T04:04:44.424Z,8.00
2019-02-16T04:05:44.481Z,7.20
2019-02-16T04:06:44.678Z,8.00
2019-02-16T04:07:44.927Z,7.70
2019-02-16T04:08:45.122Z,8.10
2019-02-16T04:09:45.174Z,7.60
2019-02-16T04:10:45.371Z,7.70
2019-02-16T04:11:45.589Z,8.50
2019-02-16T04:12:45.653Z,6.90
2019-02-16T04:13:45.884Z,7.40
2019-02-16T04:14:45.963Z,7.70
2019-02-16T04:15:46.161Z,8.90
2019-02-16T04:16:46.437Z,8.10
2019-02-16T04:17:46.501Z,8.20
2019-02-16T04:18:46.600Z,7.20
2019-02-16T04:19:46.779Z,8.10
2019-02-16T04:20:47.299Z,7.30
2019-02-16T04:21:47.087Z,7.10
2019-02-16T04:22:47.113Z,7.00
2019-02-16T04:23:47.291Z,7.30
2019-02-16T04:24:47.441Z,8.20
2019-02-16T04:25:47.526Z,8.90
2019-02-16T04:26:47.731Z,6.60
2019-02-16T04:27:48.057Z,7.20
2019-02-16T04:28:48.102Z,6.60
2019-02-16T04:29:48.246Z,6.40
2019-02-16T04:30:48.326Z,7.50
2019-02-16T04:31:48.510Z,7.30
2019-02-16T04:32:48.716Z,6.60
2019-02-16T04:33:48.911Z,7.00
2019-02-16T04:34:49.121Z,7.10
2019-02-16T04:35:49.324Z,7.40
2019-02-16T04:36:49.560Z,6.80
2019-02-16T04:37:49.640Z,7.80
2019-02-16T04:38:49.921Z,8.40
2019-02-16T04:39:49.984Z,7.60
2019-02-16T04:40:50.172Z,7.10
2019-02-16T04:41:50.475Z,7.10
2019-02-16T04:42:50.552Z,8.00
2019-02-16T04:43:50.771Z,7.60
2019-02-16T04:44:51.059Z,6.90
2019-02-16T04:45:51.211Z,8.30
2019-02-16T04:46:51.298Z,7.10
2019-02-16T04:47:51.412Z,8.00
2019-02-16T04:48:51.659Z,7.60
2019-02-16T04:49:51.764Z,7.30
2019-02-16T04:50:51.949Z,7.40
2019-02-16T04:51:52.032Z,7.40
2019-02-16T04:52:52.272Z,9.40
2019-02-16T04:53:52.365Z,7.30
2019-02-16T04:54:52.458Z,8.50
2019-02-16T04:55:52.706Z,7.90
2019-02-16T04:56:53.372Z,8.20
2019-02-16T04:57:53.012Z,7.60
2019-02-16T04:58:53.193Z,8.50
2019-02-16T04:59:53.332Z,7.90
2019-02-16T05:00:54.335Z,8.70
2019-02-16T05:01:53.528Z,7.90
2019-02-16T05:02:53.726Z,6.90
2019-02-16T05:03:53.936Z,8.80
2019-02-16T05:04:54.115Z,8.50
2019-02-16T05:05:54.335Z,8.00
2019-02-16T05:06:54.429Z,7.90
2019-02-16T05:07:54.624Z,7.10
2019-02-16T05:08:54.729Z,7.60
2019-02-16T05:09:54.882Z,7.90
2019-02-16T05:10:54.990Z,7.60
2019-02-16T05:11:55.125Z,7.90
2019-02-16T05:12:55.201Z,6.40
2019-02-16T05:13:55.380Z,9.30
2019-02-16T05:14:55.714Z,8.40
2019-02-16T05:15:55.681Z,7.90
2019-02-16T05:16:55.895Z,7.30
2019-02-16T05:17:56.009Z,7.60
2019-02-16T05:18:56.223Z,9.80
2019-02-16T05:19:56.472Z,7.40
2019-02-16T05:20:56.555Z,7.40
2019-02-16T05:21:56.734Z,7.90
2019-02-16T05:22:56.931Z,7.40
2019-02-16T05:23:57.118Z,8.00
2019-02-16T05:24:57.311Z,6.70
2019-02-16T05:25:57.503Z,7.10
2019-02-16T05:26:57.789Z,9.90
2019-02-16T05:27:57.890Z,8.80
2019-02-16T05:28:58.051Z,8.20
2019-02-16T05:29:58.151Z,7.60
2019-02-16T05:30:58.229Z,7.30
2019-02-16T05:31:58.355Z,8.10
2019-02-16T05:32:58.420Z,9.00
2019-02-16T05:33:58.630Z,8.00
2019-02-16T05:34:58.816Z,8.70
2019-02-16T05:35:59.030Z,7.50
2019-02-16T05:36:59.229Z,9.60
2019-02-16T05:37:59.409Z,8.10
2019-02-16T05:38:59.542Z,9.30
2019-02-16T05:39:59.889Z,7.80
2019-02-16T05:40:59.850Z,8.60
2019-02-16T05:42:00.063Z,7.90
2019-02-16T05:43:00.238Z,7.60
2019-02-16T05:44:00.365Z,8.40
2019-02-16T05:45:00.436Z,7.40
2019-02-16T05:46:00.793Z,8.20
2019-02-16T05:47:00.731Z,7.60
2019-02-16T05:48:00.980Z,8.40
2019-02-16T05:49:01.123Z,9.30
2019-02-16T05:50:01.184Z,7.80
2019-02-16T05:51:01.387Z,8.10
2019-02-16T05:52:01.565Z,8.90
2019-02-16T05:53:01.766Z,8.70
2019-02-16T05:54:02.117Z,8.30
2019-02-16T05:55:02.242Z,7.70
2019-02-16T05:56:02.189Z,8.20
2019-02-16T05:57:02.399Z,8.50
2019-02-16T05:58:02.620Z,8.00
2019-02-16T05:59:02.697Z,6.10
2019-02-16T06:00:02.913Z,6.80
2019-02-16T06:01:03.154Z,6.90
2019-02-16T06:02:03.243Z,8.20
2019-02-16T06:03:04.079Z,10.00
2019-02-16T06:04:03.743Z,7.50
2019-02-16T06:05:03.847Z,7.80
2019-02-16T06:06:03.943Z,7.70
2019-02-16T06:07:05.641Z,7.90
2019-02-16T06:08:04.187Z,7.10
2019-02-16T06:09:04.452Z,7.50
2019-02-16T06:10:04.557Z,8.20
2019-02-16T06:11:06.009Z,8.10
2019-02-16T06:12:04.848Z,8.80
2019-02-16T06:13:04.924Z,10.10
2019-02-16T06:14:05.228Z,8.20
2019-02-16T06:15:05.301Z,9.60
2019-02-16T06:16:05.505Z,9.50
2019-02-16T06:17:05.689Z,11.10
2019-02-16T06:18:05.910Z,9.50
2019-02-16T06:19:06.095Z,12.10
2019-02-16T06:20:06.263Z,11.80
2019-02-16T06:21:06.336Z,13.20
2019-02-16T06:22:06.544Z,12.10
2019-02-16T06:23:06.651Z,14.40
2019-02-16T06:24:06.725Z,11.70
2019-02-16T06:25:06.942Z,11.10
2019-02-16T06:26:07.286Z,11.80
2019-02-16T06:27:07.378Z,9.60
2019-02-16T06:28:07.529Z,8.70
2019-02-16T06:29:07.637Z,8.10
2019-02-16T06:30:08.233Z,9.00
2019-02-16T06:31:07.956Z,7.80
2019-02-16T06:32:08.073Z,9.30
2019-02-16T06:33:08.198Z,7.50
2019-02-16T06:34:08.265Z,8.00
2019-02-16T06:35:08.505Z,7.10
2019-02-16T06:36:08.589Z,7.70
2019-02-16T06:37:08.804Z,9.40
2019-02-16T06:38:09.023Z,7.50
2019-02-16T06:39:09.110Z,7.80
2019-02-16T06:40:09.313Z,7.70
2019-02-16T06:41:09.503Z,7.20
2019-02-16T06:42:09.766Z,6.90
2019-02-16T06:43:09.890Z,9.40
2019-02-16T06:44:09.961Z,7.30
2019-02-16T06:45:10.192Z,6.90
2019-02-16T06:46:10.303Z,8.60
2019-02-16T06:47:10.426Z,8.00
2019-02-16T06:48:10.602Z,7.60
2019-02-16T06:49:10.933Z,6.40
2019-02-16T06:50:10.988Z,8.40
2019-02-16T06:51:11.222Z,5.30
2019-02-16T06:52:11.382Z,6.30
2019-02-16T06:53:13.539Z,7.20
2019-02-16T06:54:11.789Z,7.20
2019-02-16T06:55:12.081Z,7.20
2019-02-16T06:56:12.227Z,6.80
2019-02-16T06:57:12.293Z,6.70
2019-02-16T06:58:12.528Z,7.80
2019-02-16T06:59:12.702Z,9.80
2019-02-16T07:00:12.902Z,7.60
2019-02-16T07:01:13.166Z,7.50
2019-02-16T07:02:13.976Z,7.30
2019-02-16T07:03:13.704Z,7.60
2019-02-16T07:04:13.714Z,7.30
2019-02-16T07:05:13.809Z,6.80
2019-02-16T07:06:13.878Z,8.40
2019-02-16T07:07:15.275Z,7.30
2019-02-16T07:08:14.370Z,7.60
2019-02-16T07:09:14.372Z,7.60
2019-02-16T07:10:14.558Z,8.10
2019-02-16T07:11:14.808Z,8.00
2019-02-16T07:12:14.924Z,10.00
2019-02-16T07:13:15.021Z,8.20
2019-02-16T07:14:15.108Z,8.90
2019-02-16T07:15:15.317Z,7.50
2019-02-16T07:16:15.564Z,7.10
2019-02-16T07:17:15.641Z,7.20
2019-02-16T07:18:15.944Z,8.20
2019-02-16T07:19:16.023Z,7.80
2019-02-16T07:20:16.239Z,7.80
2019-02-16T07:21:16.335Z,7.80
2019-02-16T07:22:16.585Z,6.30
2019-02-16T07:23:22.549Z,7.30
2019-02-16T07:24:16.964Z,7.80
2019-02-16T07:25:17.071Z,7.10
2019-02-16T07:26:17.235Z,6.90
2019-02-16T07:27:17.395Z,8.80
2019-02-16T07:28:17.500Z,7.20
2019-02-16T07:29:17.578Z,8.00
2019-02-16T07:30:17.830Z,6.90
2019-02-16T07:31:17.961Z,7.80
2019-02-16T07:32:18.136Z,7.30
2019-02-16T07:33:18.293Z,7.10
2019-02-16T07:34:18.391Z,6.90
2019-02-16T07:35:18.476Z,6.70
2019-02-16T07:36:18.726Z,5.60
2019-02-16T07:37:18.825Z,6.40
2019-02-16T07:38:19.011Z,6.10
2019-02-16T07:39:19.221Z,5.90
2019-02-16T07:40:19.452Z,5.60
2019-02-16T07:41:19.621Z,7.90
2019-02-16T07:42:19.696Z,5.40
2019-02-16T07:43:19.933Z,5.30
2019-02-16T07:44:20.200Z,4.80
2019-02-16T07:45:20.259Z,6.40
2019-02-16T07:46:20.315Z,6.10
2019-02-16T07:47:20.531Z,4.80
2019-02-16T07:48:20.800Z,6.50
2019-02-16T07:49:22.735Z,6.90
2019-02-16T07:50:23.028Z,5.90
2019-02-16T07:51:21.404Z,6.70
2019-02-16T07:52:21.292Z,6.10
2019-02-16T07:53:21.604Z,7.50
2019-02-16T07:54:21.750Z,6.90
2019-02-16T07:55:21.911Z,7.60
2019-02-16T07:56:22.470Z,5.90
2019-02-16T07:57:22.505Z,6.00
2019-02-16T07:58:22.352Z,6.30
2019-02-16T07:59:22.550Z,6.30
2019-02-16T08:00:22.736Z,5.30
2019-02-16T08:01:22.887Z,5.80
2019-02-16T08:02:24.005Z,5.40
2019-02-16T08:03:23.209Z,6.20
2019-02-16T08:04:23.747Z,5.70
2019-02-16T08:05:23.391Z,6.20
2019-02-16T08:06:24.898Z,6.10
2019-02-16T08:07:23.845Z,7.00
2019-02-16T08:08:24.271Z,5.30
2019-02-16T08:09:24.341Z,5.30
2019-02-16T08:10:24.327Z,5.30
2019-02-16T08:11:24.470Z,4.90
2019-02-16T08:12:24.533Z,5.40
2019-02-16T08:13:24.884Z,6.20
2019-02-16T08:14:24.940Z,4.90
2019-02-16T08:15:25.418Z,6.30
2019-02-16T08:16:25.807Z,4.30
2019-02-16T08:17:25.218Z,5.30
2019-02-16T08:18:32.892Z,6.50
2019-02-16T08:19:36.639Z,5.40
2019-02-16T08:20:33.401Z,5.70
2019-02-16T08:21:35.021Z,6.20
2019-02-16T08:22:26.568Z,5.70
2019-02-16T08:23:40.181Z,5.50
2019-02-16T08:24:26.518Z,4.60
2019-02-16T08:25:26.640Z,5.50
2019-02-16T08:26:26.698Z,5.80
2019-02-16T08:27:26.915Z,5.20
2019-02-16T08:28:27.062Z,5.00
2019-02-16T08:29:27.300Z,4.80
2019-02-16T08:30:27.403Z,4.80
2019-02-16T08:31:27.632Z,5.40
2019-02-16T08:32:27.854Z,4.70
2019-02-16T08:33:28.124Z,5.90
2019-02-16T08:34:28.246Z,5.20
2019-02-16T08:35:28.586Z,5.80
2019-02-16T08:36:31.485Z,5.40
2019-02-16T08:37:28.686Z,5.60
2019-02-16T08:38:30.063Z,6.40
2019-02-16T08:39:49.997Z,6.00
2019-02-16T08:40:29.401Z,5.70
2019-02-16T08:41:29.519Z,7.00
2019-02-16T08:42:29.470Z,6.50
2019-02-16T08:43:29.817Z,5.40
2019-02-16T08:44:29.921Z,5.40
2019-02-16T08:45:30.055Z,9.40
2019-02-16T08:46:30.129Z,5.00
2019-02-16T08:47:30.372Z,5.60
2019-02-16T08:48:30.627Z,5.00
2019-02-16T08:49:31.179Z,5.80
2019-02-16T08:50:30.877Z,5.60
2019-02-16T08:51:31.146Z,6.20
2019-02-16T08:52:31.442Z,4.90
2019-02-16T08:53:31.474Z,4.60
2019-02-16T08:54:31.569Z,4.40
2019-02-16T08:55:32.017Z,5.80
2019-02-16T08:56:32.039Z,5.20
2019-02-16T08:57:32.186Z,5.70
2019-02-16T08:58:32.173Z,4.60
2019-02-16T08:59:32.372Z,5.90
2019-02-16T09:00:32.376Z,5.30
2019-02-16T09:01:32.685Z,7.30
2019-02-16T09:02:32.763Z,6.50
2019-02-16T09:03:32.860Z,5.00
2019-02-16T09:04:33.127Z,4.60
2019-02-16T09:05:33.223Z,4.70
2019-02-16T09:06:33.429Z,5.00
2019-02-16T09:07:34.044Z,5.10
2019-02-16T09:08:33.831Z,6.10
2019-02-16T09:09:33.995Z,5.90
2019-02-16T09:10:34.148Z,5.40
2019-02-16T09:11:34.265Z,5.20
2019-02-16T09:12:34.411Z,5.30
2019-02-16T09:13:34.552Z,5.60
2019-02-16T09:14:34.625Z,5.60
2019-02-16T09:15:34.886Z,5.40
2019-02-16T09:16:36.941Z,5.30
2019-02-16T09:17:35.229Z,6.70
2019-02-16T09:18:35.346Z,5.40
2019-02-16T09:19:35.546Z,6.20
2019-02-16T09:20:35.629Z,6.50
2019-02-16T09:21:35.743Z,5.60
2019-02-16T09:22:36.436Z,4.90
2019-02-16T09:23:36.037Z,5.20
2019-02-16T09:24:36.154Z,5.20
2019-02-16T09:25:36.287Z,6.80
2019-02-16T09:26:36.447Z,8.00
2019-02-16T09:27:36.560Z,7.40
2019-02-16T09:28:36.782Z,9.20
2019-02-16T09:29:36.924Z,7.40
2019-02-16T09:30:37.039Z,9.00
2019-02-16T09:31:37.115Z,8.80
2019-02-16T09:32:37.352Z,7.00
2019-02-16T09:33:37.452Z,6.90
2019-02-16T09:34:37.592Z,7.00
2019-02-16T09:35:37.697Z,6.90
2019-02-16T09:36:37.790Z,6.90
2019-02-16T09:37:38.038Z,5.40
2019-02-16T09:38:38.163Z,4.60
2019-02-16T09:39:38.282Z,5.80
2019-02-16T09:40:38.503Z,5.10
2019-02-16T09:41:41.083Z,6.30
2019-02-16T09:42:39.235Z,5.10
2019-02-16T09:43:40.016Z,5.90
2019-02-16T09:44:40.618Z,5.40
2019-02-16T09:45:39.333Z,5.60
2019-02-16T09:46:39.312Z,6.70
2019-02-16T09:47:39.485Z,6.20
2019-02-16T09:48:40.346Z,6.10
2019-02-16T09:49:39.919Z,6.20
2019-02-16T09:50:39.945Z,6.10
2019-02-16T09:51:42.007Z,6.50
2019-02-16T09:52:40.655Z,6.40
2019-02-16T09:53:40.521Z,6.00
2019-02-16T09:54:41.464Z,6.00
2019-02-16T09:55:40.745Z,6.10
2019-02-16T09:56:40.851Z,6.30
2019-02-16T09:57:40.963Z,6.00
2019-02-16T09:58:41.112Z,6.40
2019-02-16T09:59:41.300Z,6.50
2019-02-16T10:00:41.804Z,5.60
2019-02-16T10:01:41.579Z,6.40
2019-02-16T10:02:41.831Z,5.60
2019-02-16T10:03:41.788Z,5.60
2019-02-16T10:04:42.010Z,6.80
2019-02-16T10:05:42.212Z,7.20
2019-02-16T10:06:42.448Z,5.90
2019-02-16T10:07:42.627Z,7.10
2019-02-16T10:08:42.774Z,7.50
2019-02-16T10:09:42.889Z,6.00
2019-02-16T10:10:43.002Z,9.30
2019-02-16T10:11:43.139Z,8.10
2019-02-16T10:12:43.204Z,6.50
2019-02-16T10:13:43.488Z,6.50
2019-02-16T10:14:43.529Z,6.10
2019-02-16T10:15:43.801Z,6.40
2019-02-16T10:16:43.889Z,6.80
2019-02-16T10:17:44.105Z,7.80
2019-02-16T10:18:44.353Z,6.20
2019-02-16T10:19:44.516Z,6.00
2019-02-16T10:20:44.618Z,6.30
2019-02-16T10:21:44.743Z,5.90
2019-02-16T10:22:44.844Z,5.60
2019-02-16T10:23:44.914Z,6.30
2019-02-16T10:24:45.132Z,5.40
2019-02-16T10:25:45.338Z,5.80
2019-02-16T10:26:45.550Z,6.60
2019-02-16T10:27:45.778Z,7.70
2019-02-16T10:28:45.849Z,7.40
2019-02-16T10:29:46.139Z,5.60
2019-02-16T10:30:46.320Z,4.50
2019-02-16T10:31:46.497Z,6.30
2019-02-16T10:32:48.648Z,5.90
2019-02-16T10:33:46.678Z,5.00
2019-02-16T10:34:46.875Z,5.90
2019-02-16T10:35:47.067Z,6.40
2019-02-16T10:36:47.320Z,5.40
2019-02-16T10:37:47.471Z,6.10
2019-02-16T10:38:47.528Z,5.50
2019-02-16T10:39:47.797Z,5.30
2019-02-16T10:40:47.903Z,6.70
2019-02-16T10:41:50.013Z,6.30
2019-02-16T10:42:48.220Z,5.70
2019-02-16T10:43:48.430Z,6.30
2019-02-16T10:44:48.501Z,5.60
2019-02-16T10:45:48.844Z,6.10
2019-02-16T10:46:48.955Z,6.50
2019-02-16T10:47:49.240Z,6.10
2019-02-16T10:48:49.394Z,6.60
2019-02-16T10:49:49.524Z,6.80
2019-02-16T10:50:49.626Z,6.70
2019-02-16T10:51:49.763Z,6.20
2019-02-16T10:52:49.865Z,7.50
2019-02-16T10:53:49.964Z,7.10
2019-02-16T10:54:50.183Z,6.10
2019-02-16T10:55:50.436Z,6.40
2019-02-16T10:56:52.367Z,5.90
2019-02-16T10:57:50.641Z,6.80
2019-02-16T10:58:50.841Z,5.50
2019-02-16T10:59:51.089Z,8.80
2019-02-16T11:00:51.192Z,7.50
2019-02-16T11:01:52.212Z,7.10
2019-02-16T11:02:53.551Z,7.60
2019-02-16T11:03:53.586Z,8.10
2019-02-16T11:04:53.809Z,7.30
2019-02-16T11:05:53.112Z,6.70
2019-02-16T11:06:53.485Z,7.40
2019-02-16T11:07:53.537Z,6.40
2019-02-16T11:08:52.852Z,6.10
2019-02-16T11:09:52.499Z,6.50
2019-02-16T11:10:52.604Z,6.70
2019-02-16T11:11:52.797Z,6.40
2019-02-16T11:12:53.015Z,5.10
2019-02-16T11:13:53.235Z,6.70
2019-02-16T11:14:53.430Z,7.40
2019-02-16T11:15:53.639Z,6.60
2019-02-16T11:16:53.858Z,6.60
2019-02-16T11:17:55.850Z,5.70
2019-02-16T11:18:54.165Z,7.10
2019-02-16T11:19:54.411Z,6.70
2019-02-16T11:20:54.484Z,6.40
2019-02-16T11:21:54.626Z,6.30
2019-02-16T11:22:54.850Z,5.50
2019-02-16T11:23:55.052Z,5.30
2019-02-16T11:24:56.920Z,5.60
2019-02-16T11:25:55.456Z,6.00
2019-02-16T11:26:55.652Z,6.00
2019-02-16T11:27:55.839Z,5.10
2019-02-16T11:28:56.050Z,6.20
2019-02-16T11:29:56.283Z,6.10
2019-02-16T11:30:56.406Z,5.00
2019-02-16T11:31:56.510Z,5.70
2019-02-16T11:32:56.606Z,6.00
2019-02-16T11:33:56.830Z,6.40
2019-02-16T11:34:57.053Z,6.70
2019-02-16T11:35:57.283Z,5.40
2019-02-16T11:36:57.527Z,6.10
2019-02-16T11:37:57.617Z,5.50
2019-02-16T11:38:57.839Z,5.10
2019-02-16T11:39:58.071Z,7.70
2019-02-16T11:40:58.339Z,6.10
2019-02-16T11:41:58.486Z,6.50
2019-02-16T11:42:58.748Z,5.40
2019-02-16T11:43:58.858Z,5.00
2019-02-16T11:44:58.958Z,5.10
2019-02-16T11:45:59.180Z,5.40
2019-02-16T11:46:59.395Z,5.20
2019-02-16T11:48:00.787Z,5.10
2019-02-16T11:48:59.736Z,5.70
2019-02-16T11:49:59.938Z,5.80
2019-02-16T11:51:00.224Z,6.60
2019-02-16T11:52:00.371Z,5.80
2019-02-16T11:53:00.508Z,4.30
2019-02-16T11:54:01.094Z,5.50
2019-02-16T11:55:00.867Z,5.50
2019-02-16T11:56:00.981Z,6.40
2019-02-16T11:57:01.145Z,5.20
2019-02-16T11:58:01.293Z,5.40
2019-02-16T11:59:02.842Z,5.40
2019-02-16T12:00:01.618Z,5.80
2019-02-16T12:01:01.800Z,6.10
2019-02-16T12:02:02.020Z,5.30
2019-02-16T12:03:02.220Z,4.60
2019-02-16T12:04:02.439Z,4.50
2019-02-16T12:05:02.681Z,6.30
2019-02-16T12:06:02.764Z,5.90
2019-02-16T12:07:02.977Z,5.20
2019-02-16T12:08:03.213Z,5.30
2019-02-16T12:09:03.423Z,4.80
2019-02-16T12:10:03.658Z,5.90
2019-02-16T12:11:03.746Z,5.00
2019-02-16T12:12:04.052Z,4.80
2019-02-16T12:13:04.193Z,6.30
2019-02-16T12:14:04.273Z,5.40
2019-02-16T12:15:04.557Z,5.20
2019-02-16T12:16:04.670Z,5.70
2019-02-16T12:17:04.875Z,5.40
2019-02-16T12:18:05.084Z,5.80
2019-02-16T12:19:13.272Z,4.80
2019-02-16T12:20:13.283Z,4.80
2019-02-16T12:21:13.367Z,6.20
2019-02-16T12:22:05.840Z,5.20
2019-02-16T12:23:05.940Z,6.70
2019-02-16T12:24:06.173Z,4.80
2019-02-16T12:25:06.539Z,4.60
2019-02-16T12:26:06.427Z,6.90
2019-02-16T12:27:06.560Z,6.10
2019-02-16T12:28:06.646Z,5.40
2019-02-16T12:29:06.885Z,6.30
2019-02-16T12:30:07.105Z,5.20
2019-02-16T12:31:07.327Z,6.10
2019-02-16T12:32:07.566Z,5.90
2019-02-16T12:33:07.739Z,5.80
2019-02-16T12:34:10.647Z,5.90
2019-02-16T12:35:07.979Z,5.50
2019-02-16T12:36:08.380Z,6.60
2019-02-16T12:37:08.388Z,5.70
2019-02-16T12:38:09.058Z,5.50
2019-02-16T12:39:10.887Z,6.00
2019-02-16T12:40:12.677Z,6.20
2019-02-16T12:41:09.079Z,5.70
2019-02-16T12:42:09.255Z,7.20
2019-02-16T12:43:09.356Z,6.10
2019-02-16T12:44:09.640Z,6.30
2019-02-16T12:45:09.802Z,8.40
2019-02-16T12:46:09.906Z,6.20
2019-02-16T12:47:10.126Z,5.90
2019-02-16T12:48:10.349Z,7.10
2019-02-16T12:49:10.561Z,6.50
2019-02-16T12:50:10.763Z,6.00
2019-02-16T12:51:10.906Z,6.00
2019-02-16T12:52:10.998Z,6.30
2019-02-16T12:53:11.379Z,6.70
2019-02-16T12:54:11.771Z,7.20
2019-02-16T12:55:14.769Z,5.60
2019-02-16T12:56:11.964Z,6.60
2019-02-16T12:57:12.092Z,5.50
2019-02-16T12:58:12.447Z,6.40
2019-02-16T12:59:12.514Z,7.20
2019-02-16T13:00:12.584Z,6.90
2019-02-16T13:01:12.943Z,5.70
2019-02-16T13:02:12.967Z,7.20
2019-02-16T13:03:13.333Z,6.50
2019-02-16T13:04:13.316Z,6.10
2019-02-16T13:08:43.506Z,6.70
2019-02-16T13:09:28.139Z,6.80
2019-02-16T13:10:42.739Z,5.70
2019-02-16T13:11:24.003Z,6.20
2019-02-16T13:12:27.700Z,5.20
2019-02-16T13:13:23.618Z,5.60
2019-02-16T13:14:54.167Z,7.10
2019-02-16T13:15:23.184Z,5.50
2019-02-16T13:16:22.919Z,6.70
2019-02-16T13:17:44.804Z,6.70
2019-02-16T13:32:54.171Z,5.10
2019-02-16T14:12:04.343Z,7.20
2019-02-16T14:16:07.011Z,8.30
2019-02-16T14:17:10.651Z,6.90
2019-02-16T14:19:42.463Z,7.30